Time;durP1;ratioP1;P1;durP2;ratioP2;P2;SDS_P1;SDS_P2;PMS_P1;PMS_P2;Temp;Humidity;BMP_temperature;BMP_pressure;BME280_temperature;BME280_humidity;BME280_pressure;Samples;Min_cycle;Max_cycle;Signal;HPM_P1;HPM_P2
2023/10/16 00:02:56;;;;;;;1.40;0.90;;;;;;;;;;12856174;23;20028;-78
2023/10/16 00:08:05;;;;;;;1.13;0.80;;;;;;;;;;12859339;23;20123;-78
2023/10/16 00:13:11;;;;;;;2.58;1.27;;;;;;;;;;12857185;23;20048;-78
2023/10/16 00:18:16;;;;;;;1.52;1.00;;;;;;;;;;12857437;23;20099;-79
2023/10/16 00:23:24;;;;;;;2.17;1.42;;;;;;;;;;12857105;23;20028;-78
2023/10/16 00:28:30;;;;;;;1.85;0.98;;;;;;;;;;12856288;23;20020;-78
2023/10/16 00:33:33;;;;;;;1.93;1.30;;;;;;;;;;12856617;23;20032;-78
2023/10/16 00:38:38;;;;;;;1.83;0.90;;;;;;;;;;12854702;23;20385;-78
2023/10/16 00:43:41;;;;;;;2.58;1.30;;;;;;;;;;12855041;23;20104;-78
2023/10/16 00:48:44;;;;;;;2.78;1.35;;;;;;;;;;12875564;23;20097;-78
2023/10/16 00:53:49;;;;;;;1.10;1.00;;;;;;;;;;12874829;23;20016;-78
2023/10/16 00:58:53;;;;;;;1.35;0.95;;;;;;;;;;12854034;23;20043;-78
2023/10/16 01:03:57;;;;;;;2.70;1.00;;;;;;;;;;12874389;23;20087;-78
2023/10/16 01:09:02;;;;;;;1.17;0.90;;;;;;;;;;12873968;23;20040;-78
2023/10/16 01:14:06;;;;;;;1.38;1.00;;;;;;;;;;12856965;23;20075;-78
2023/10/16 01:19:11;;;;;;;1.52;1.27;;;;;;;;;;12873051;23;20028;-78
2023/10/16 01:24:16;;;;;;;1.75;1.40;;;;;;;;;;12869814;23;20048;-78
2023/10/16 01:29:21;;;;;;;1.42;1.13;;;;;;;;;;12853295;23;20530;-78
2023/10/16 01:34:24;;;;;;;1.23;1.08;;;;;;;;;;12857172;23;20055;-79
2023/10/16 01:39:48;;;;;;;2.10;1.10;;;;;;;;;;12873047;23;20031;-79
2023/10/16 01:44:52;;;;;;;1.63;1.15;;;;;;;;;;12848752;22;20020;-76
2023/10/16 01:49:55;;;;;;;2.55;1.58;;;;;;;;;;12814002;23;20033;-76
2023/10/16 01:55:00;;;;;;;1.70;1.20;;;;;;;;;;12786948;23;20083;-76
2023/10/16 02:00:06;;;;;;;1.92;1.33;;;;;;;;;;12787124;23;20029;-76
2023/10/16 02:05:14;;;;;;;4.30;1.30;;;;;;;;;;12788638;23;20096;-76
2023/10/16 02:10:20;;;;;;;2.20;1.20;;;;;;;;;;12786958;23;20044;-76
2023/10/16 02:15:23;;;;;;;2.67;1.08;;;;;;;;;;12802474;23;20021;-76
2023/10/16 02:20:31;;;;;;;2.78;1.02;;;;;;;;;;12786786;23;20080;-76
2023/10/16 02:25:37;;;;;;;1.27;1.05;;;;;;;;;;12800660;23;20100;-76
2023/10/16 02:30:41;;;;;;;;;;;;;;;;;;12787714;23;20207;-76
2023/10/16 02:35:48;;;;;;;1.45;1.00;;;;;;;;;;12787288;23;19927;-76
2023/10/16 02:40:54;;;;;;;2.00;1.10;;;;;;;;;;12798932;23;20021;-76
2023/10/16 02:46:01;;;;;;;1.45;1.05;;;;;;;;;;12787052;23;20029;-76
2023/10/16 02:51:06;;;;;;;2.17;1.13;;;;;;;;;;12798592;23;20080;-76
2023/10/16 02:56:14;;;;;;;1.97;1.23;;;;;;;;;;12798134;23;20468;-76
2023/10/16 03:01:18;;;;;;;1.05;0.90;;;;;;;;;;12786882;23;20303;-76
2023/10/16 03:06:22;;;;;;;2.22;1.05;;;;;;;;;;12797049;23;20035;-76
2023/10/16 03:11:27;;;;;;;1.42;0.90;;;;;;;;;;12786652;23;20452;-76
2023/10/16 03:16:36;;;;;;;1.85;1.15;;;;;;;;;;12796439;23;20029;-76
2023/10/16 03:21:40;;;;;;;1.85;1.00;;;;;;;;;;12786684;23;20537;-76
2023/10/16 03:26:47;;;;;;;1.10;0.90;;;;;;;;;;12786028;23;20364;-76
2023/10/16 03:31:51;;;;;;;2.00;0.90;;;;;;;;;;12787092;23;20025;-76
2023/10/16 03:37:01;;;;;;;3.35;1.17;;;;;;;;;;12790650;23;20377;-76
2023/10/16 03:42:09;;;;;;;1.17;0.70;;;;;;;;;;12790355;23;20048;-76
2023/10/16 03:47:14;;;;;;;1.17;0.80;;;;;;;;;;12797594;23;20510;-76
2023/10/16 03:52:17;;;;;;;1.90;1.10;;;;;;;;;;12797008;23;20084;-76
2023/10/16 03:57:23;;;;;;;1.17;0.90;;;;;;;;;;12791228;23;20021;-76
2023/10/16 04:02:31;;;;;;;2.13;1.02;;;;;;;;;;12795877;23;20021;-76
2023/10/16 04:07:36;;;;;;;0.70;0.70;;;;;;;;;;12795416;23;20021;-76
2023/10/16 04:12:51;;;;;;;0.90;0.80;;;;;;;;;;12794791;23;20021;-76
2023/10/16 04:18:04;;;;;;;1.25;0.77;;;;;;;;;;12791925;23;20080;-76
2023/10/16 04:23:21;;;;;;;1.90;1.00;;;;;;;;;;12789500;23;20427;-76
2023/10/16 04:28:29;;;;;;;1.05;0.70;;;;;;;;;;12789799;23;20032;-76
2023/10/16 04:33:48;;;;;;;1.10;1.00;;;;;;;;;;12789501;23;20025;-76
2023/10/16 04:38:54;;;;;;;2.15;1.40;;;;;;;;;;12809983;23;20021;-76
2023/10/16 04:49:16;;;;;;;2.70;1.35;;;;;;;;;;12808101;23;20397;-76
2023/10/16 04:54:45;;;;;;;2.15;1.42;;;;;;;;;;12790995;23;20519;-76
2023/10/16 05:00:12;;;;;;;1.40;1.05;;;;;;;;;;12805322;23;20469;-76
2023/10/16 05:05:45;;;;;;;1.67;0.90;;;;;;;;;;12801193;23;20336;-76
2023/10/16 05:11:23;;;;;;;1.23;1.13;;;;;;;;;;12790505;23;20553;-76
2023/10/16 05:16:30;;;;;;;1.85;1.30;;;;;;;;;;12799742;23;20337;-76
2023/10/16 06:14:09;;;;;;;1.52;1.20;;;;;;;;;;12733188;23;20032;-76
2023/10/16 06:15:38;;;;;;;1.77;1.30;;;;;;;;;;12768149;23;20079;-76
2023/10/16 06:20:44;;;;;;;2.03;1.42;;;;;;;;;;12799390;23;20021;-78
2023/10/16 06:25:48;;;;;;;2.60;1.95;;;;;;;;;;12799376;23;20036;-77
2023/10/16 06:30:52;;;;;;;1.42;1.30;;;;;;;;;;12787117;23;20076;-77
2023/10/16 06:35:57;;;;;;;2.05;1.40;;;;;;;;;;12787323;23;20029;-77
2023/10/16 06:41:01;;;;;;;2.17;1.20;;;;;;;;;;12786774;23;20024;-77
2023/10/16 06:46:09;;;;;;;3.42;1.38;;;;;;;;;;12798966;23;20029;-77
2023/10/16 06:51:15;;;;;;;3.90;1.58;;;;;;;;;;12797670;23;20025;-77
2023/10/16 06:56:30;;;;;;;6.57;2.53;;;;;;;;;;12797873;23;20088;-77
2023/10/16 07:01:34;;;;;;;5.13;2.30;;;;;;;;;;12796255;23;20063;-77
2023/10/16 07:06:42;;;;;;;3.85;2.03;;;;;;;;;;12787782;23;20428;-77
2023/10/16 07:11:45;;;;;;;7.80;2.20;;;;;;;;;;12791217;23;20025;-77
2023/10/16 07:16:48;;;;;;;4.95;2.45;;;;;;;;;;12799058;23;20032;-77
2023/10/16 07:21:54;;;;;;;4.03;2.10;;;;;;;;;;12798292;23;20025;-77
2023/10/16 07:26:59;;;;;;;4.90;2.90;;;;;;;;;;12790110;23;20025;-77
2023/10/16 07:32:03;;;;;;;7.30;3.22;;;;;;;;;;12792093;23;20256;-78
2023/10/16 07:37:08;;;;;;;6.55;3.40;;;;;;;;;;12790287;23;20113;-77
2023/10/16 07:42:12;;;;;;;8.43;2.90;;;;;;;;;;12796593;23;20017;-77
2023/10/16 07:47:15;;;;;;;12.73;4.60;;;;;;;;;;12796314;23;20088;-77
2023/10/16 07:52:20;;;;;;;6.50;2.85;;;;;;;;;;12788365;23;20031;-77
2023/10/16 07:57:24;;;;;;;5.90;2.58;;;;;;;;;;12788992;23;20028;-77
2023/10/16 08:02:27;;;;;;;6.82;2.97;;;;;;;;;;12790745;23;20044;-77
2023/10/16 08:07:46;;;;;;;8.57;4.10;;;;;;;;;;12791788;23;20100;-77
2023/10/16 08:12:50;;;;;;;7.57;3.00;;;;;;;;;;12793110;23;20096;-77
2023/10/16 08:17:53;;;;;;;8.63;4.10;;;;;;;;;;12775387;23;20032;-77
2023/10/16 08:23:05;;;;;;;7.72;3.85;;;;;;;;;;12792857;23;20017;-78
2023/10/16 08:28:20;;;;;;;8.43;4.18;;;;;;;;;;12792425;23;20456;-77
2023/10/16 08:33:32;;;;;;;5.18;2.83;;;;;;;;;;12789480;23;20465;-77
2023/10/16 08:38:37;;;;;;;8.05;3.58;;;;;;;;;;12788023;23;20032;-78
2023/10/16 08:43:53;;;;;;;6.80;3.50;;;;;;;;;;12702613;23;20398;-77
2023/10/16 08:48:57;;;;;;;6.53;3.72;;;;;;;;;;12729877;23;20077;-77
2023/10/16 08:54:03;;;;;;;8.48;4.07;;;;;;;;;;12747221;23;20222;-77
2023/10/16 08:59:07;;;;;;;;;;;;;;;;;;12728473;23;20025;-78
2023/10/16 09:04:14;;;;;;;6.30;2.03;;;;;;;;;;12746715;23;19924;-78
2023/10/16 09:09:20;;;;;;;5.32;3.10;;;;;;;;;;12729322;23;20054;-77
2023/10/16 09:14:26;;;;;;;8.63;4.20;;;;;;;;;;12729529;23;20025;-78
2023/10/16 09:19:34;;;;;;;5.10;3.15;;;;;;;;;;12728661;23;20389;-77
2023/10/16 09:24:38;;;;;;;6.28;2.97;;;;;;;;;;12743739;23;20033;-78
2023/10/16 09:29:53;;;;;;;5.45;3.30;;;;;;;;;;12702441;23;20037;-77
2023/10/16 09:34:58;;;;;;;6.78;3.78;;;;;;;;;;12741907;23;20021;-77
2023/10/16 09:40:18;;;;;;;8.63;4.10;;;;;;;;;;12701290;23;20492;-77
2023/10/16 09:45:29;;;;;;;4.85;2.83;;;;;;;;;;12701596;23;20026;-77
2023/10/16 09:50:33;;;;;;;4.03;2.38;;;;;;;;;;12739324;23;20526;-77
2023/10/16 09:55:39;;;;;;;3.58;2.45;;;;;;;;;;12727956;23;20025;-77
2023/10/16 10:00:46;;;;;;;3.50;1.98;;;;;;;;;;12727874;23;20029;-77
2023/10/16 10:06:08;;;;;;;2.90;1.88;;;;;;;;;;12738320;23;20053;-78
2023/10/16 10:11:37;;;;;;;4.90;2.80;;;;;;;;;;12736334;23;20029;-77
2023/10/16 10:16:47;;;;;;;4.57;2.45;;;;;;;;;;12733874;23;20385;-77
2023/10/16 10:21:53;;;;;;;3.42;2.60;;;;;;;;;;12732938;23;20345;-77
2023/10/16 10:27:02;;;;;;;3.67;2.40;;;;;;;;;;12733160;23;20034;-77
2023/10/16 10:32:12;;;;;;;3.40;2.05;;;;;;;;;;12726660;23;20032;-77
2023/10/16 10:37:42;;;;;;;2.78;2.15;;;;;;;;;;12731793;23;20369;-77
2023/10/16 10:42:47;;;;;;;5.55;2.60;;;;;;;;;;12726672;23;20029;-78
2023/10/16 10:47:54;;;;;;;3.93;2.13;;;;;;;;;;12729129;23;20032;-77
2023/10/16 10:52:59;;;;;;;4.00;2.15;;;;;;;;;;12725786;23;20049;-77
2023/10/16 10:58:12;;;;;;;6.30;2.95;;;;;;;;;;12700817;23;20021;-77
2023/10/16 11:03:31;;;;;;;5.72;3.72;;;;;;;;;;12727139;23;20021;-77
2023/10/16 11:08:36;;;;;;;6.07;4.10;;;;;;;;;;12726140;23;20413;-78
2023/10/16 11:13:48;;;;;;;6.47;2.92;;;;;;;;;;12700766;23;20026;-78
2023/10/16 11:18:58;;;;;;;4.88;3.05;;;;;;;;;;12745202;23;20026;-78
2023/10/16 11:24:05;;;;;;;6.32;3.92;;;;;;;;;;12725402;23;20052;-78
2023/10/16 11:29:12;;;;;;;6.18;3.05;;;;;;;;;;12743228;23;20555;-77
2023/10/16 11:34:21;;;;;;;4.22;2.35;;;;;;;;;;12742753;23;20128;-76
2023/10/16 11:39:26;;;;;;;5.03;2.70;;;;;;;;;;12700080;23;20026;-77
2023/10/16 11:44:32;;;;;;;4.95;2.70;;;;;;;;;;12742029;23;20021;-77
2023/10/16 11:49:37;;;;;;;4.70;2.83;;;;;;;;;;12725972;23;20238;-77
2023/10/16 11:54:42;;;;;;;2.70;1.85;;;;;;;;;;12742509;23;20025;-77
2023/10/16 11:59:51;;;;;;;4.28;2.30;;;;;;;;;;12742657;23;20033;-77
2023/10/16 12:04:57;;;;;;;2.15;1.52;;;;;;;;;;12742290;23;20025;-77
2023/10/16 12:10:05;;;;;;;1.85;1.17;;;;;;;;;;12702090;23;20030;-77
2023/10/16 12:15:12;;;;;;;4.32;2.15;;;;;;;;;;12729375;23;20453;-77
2023/10/16 12:20:16;;;;;;;2.47;1.15;;;;;;;;;;12702706;23;20442;-77
2023/10/16 12:25:21;;;;;;;1.65;0.82;;;;;;;;;;12703132;23;20080;-77
2023/10/16 12:30:27;;;;;;;1.58;0.95;;;;;;;;;;12702269;23;20029;-77
2023/10/16 12:35:31;;;;;;;2.20;1.00;;;;;;;;;;12729350;23;20356;-77
2023/10/16 12:40:37;;;;;;;1.85;0.90;;;;;;;;;;12740330;23;20496;-77
2023/10/16 12:45:42;;;;;;;3.90;1.02;;;;;;;;;;12728861;23;20081;-77
2023/10/16 12:50:47;;;;;;;1.73;0.65;;;;;;;;;;12739392;23;20088;-77
2023/10/16 12:55:58;;;;;;;2.85;1.00;;;;;;;;;;12702115;23;20410;-77
2023/10/16 13:01:05;;;;;;;0.98;0.80;;;;;;;;;;12737644;23;20064;-77
2023/10/16 13:06:10;;;;;;;1.90;0.70;;;;;;;;;;12736955;23;20337;-77
2023/10/16 13:11:16;;;;;;;1.90;1.20;;;;;;;;;;12736671;23;20025;-76
2023/10/16 13:16:25;;;;;;;1.77;0.90;;;;;;;;;;12736598;23;20036;-77
2023/10/16 13:21:33;;;;;;;2.55;0.88;;;;;;;;;;12726362;23;20375;-77
2023/10/16 13:26:37;;;;;;;1.65;0.90;;;;;;;;;;12735205;23;20828;-77
2023/10/16 13:31:45;;;;;;;1.65;1.20;;;;;;;;;;12735085;23;20033;-77
2023/10/16 13:36:56;;;;;;;3.00;1.00;;;;;;;;;;12734066;23;20136;-77
2023/10/16 13:42:00;;;;;;;3.78;0.80;;;;;;;;;;12754497;22;20448;-76
2023/10/16 13:47:06;;;;;;;1.60;0.88;;;;;;;;;;12839401;23;20025;-77
2023/10/16 13:52:09;;;;;;;3.28;1.08;;;;;;;;;;12792782;23;20488;-76
2023/10/16 13:57:12;;;;;;;1.60;1.05;;;;;;;;;;12787690;23;20048;-77
2023/10/16 14:02:17;;;;;;;2.05;1.02;;;;;;;;;;12792616;23;20025;-76
2023/10/16 14:07:21;;;;;;;1.27;0.80;;;;;;;;;;12792158;23;20116;-76
2023/10/16 14:12:25;;;;;;;1.30;0.88;;;;;;;;;;12788137;23;20025;-77
2023/10/16 14:17:37;;;;;;;3.08;1.02;;;;;;;;;;12762184;23;20080;-77
2023/10/16 14:22:47;;;;;;;2.30;1.20;;;;;;;;;;12789840;23;20024;-76
2023/10/16 14:27:50;;;;;;;1.55;1.02;;;;;;;;;;12766948;23;20032;-77
2023/10/16 14:32:55;;;;;;;1.17;1.00;;;;;;;;;;12789775;23;20031;-76
2023/10/16 14:37:58;;;;;;;1.67;1.00;;;;;;;;;;12788749;23;20512;-77
2023/10/16 14:43:03;;;;;;;1.55;1.05;;;;;;;;;;12774245;23;20646;-76
2023/10/16 14:48:09;;;;;;;1.48;1.08;;;;;;;;;;12786039;23;20021;-77
2023/10/16 14:53:13;;;;;;;2.92;1.23;;;;;;;;;;12787982;23;20021;-76
2023/10/16 14:58:18;;;;;;;2.63;1.25;;;;;;;;;;12789131;23;20032;-76
2023/10/16 15:03:39;;;;;;;4.68;1.17;;;;;;;;;;12787271;23;20021;-76
2023/10/16 15:08:44;;;;;;;1.88;1.08;;;;;;;;;;12805200;23;20341;-76
2023/10/16 15:13:47;;;;;;;2.15;1.13;;;;;;;;;;12806409;23;20456;-76
2023/10/16 15:18:52;;;;;;;3.13;1.30;;;;;;;;;;12806451;23;20021;-76
2023/10/16 15:23:56;;;;;;;3.38;1.42;;;;;;;;;;12762400;23;20104;-76
2023/10/16 15:29:00;;;;;;;1.48;0.90;;;;;;;;;;12789979;23;20024;-76
2023/10/16 15:34:08;;;;;;;1.30;0.80;;;;;;;;;;12809579;23;20533;-76
2023/10/16 15:39:15;;;;;;;2.88;1.13;;;;;;;;;;12780430;23;20036;-76
2023/10/16 15:44:21;;;;;;;1.40;1.00;;;;;;;;;;12791359;23;20036;-76
2023/10/16 15:49:26;;;;;;;1.70;0.90;;;;;;;;;;12807624;23;20029;-76
2023/10/16 15:54:29;;;;;;;1.48;1.10;;;;;;;;;;12806690;23;20460;-76
2023/10/16 15:59:34;;;;;;;2.05;1.02;;;;;;;;;;12807974;23;20032;-77
2023/10/16 16:04:39;;;;;;;2.13;1.02;;;;;;;;;;12806823;23;20073;-76
2023/10/16 16:09:43;;;;;;;3.80;1.10;;;;;;;;;;12806691;23;20457;-77
2023/10/16 16:14:46;;;;;;;1.70;0.93;;;;;;;;;;12791831;23;20108;-76
2023/10/16 16:19:51;;;;;;;1.70;0.77;;;;;;;;;;12805733;23;20096;-76
2023/10/16 16:24:54;;;;;;;1.33;0.90;;;;;;;;;;12804988;23;20326;-76
2023/10/16 16:29:58;;;;;;;1.38;1.00;;;;;;;;;;12804751;23;20040;-76
2023/10/16 16:35:04;;;;;;;1.70;1.05;;;;;;;;;;12791072;23;20048;-76
2023/10/16 16:40:09;;;;;;;2.90;1.80;;;;;;;;;;12790481;23;20104;-77
2023/10/16 16:45:13;;;;;;;5.65;3.20;;;;;;;;;;12790285;23;20025;-76
2023/10/16 16:50:18;;;;;;;6.90;3.28;;;;;;;;;;12803239;23;20076;-76
2023/10/16 16:55:23;;;;;;;3.83;2.90;;;;;;;;;;12802391;23;20025;-76
2023/10/16 17:00:27;;;;;;;3.17;2.47;;;;;;;;;;12801999;23;20028;-76
2023/10/16 17:05:34;;;;;;;5.72;3.70;;;;;;;;;;12801763;23;20341;-76
2023/10/16 17:10:37;;;;;;;5.07;3.92;;;;;;;;;;12801239;23;20052;-76
2023/10/16 17:15:41;;;;;;;4.65;3.47;;;;;;;;;;12800981;23;20533;-76
2023/10/16 17:20:46;;;;;;;7.22;4.55;;;;;;;;;;12800215;23;20468;-77
2023/10/16 17:25:49;;;;;;;7.18;4.40;;;;;;;;;;12799987;23;20021;-77
2023/10/16 17:30:53;;;;;;;6.45;4.00;;;;;;;;;;12800194;23;20041;-76
2023/10/16 17:36:02;;;;;;;8.05;5.05;;;;;;;;;;12784029;23;20017;-76
2023/10/16 17:41:06;;;;;;;4.50;3.35;;;;;;;;;;12798701;23;20025;-76
2023/10/16 17:46:10;;;;;;;5.55;2.47;;;;;;;;;;12798285;23;20489;-76
2023/10/16 17:51:16;;;;;;;3.80;2.38;;;;;;;;;;12789202;23;20032;-77
2023/10/16 17:56:20;;;;;;;7.70;2.55;;;;;;;;;;12795208;23;20532;-76
2023/10/16 18:01:23;;;;;;;6.55;2.72;;;;;;;;;;12794643;23;20057;-77
2023/10/16 18:06:28;;;;;;;4.63;2.78;;;;;;;;;;12794842;23;20431;-77
2023/10/16 18:11:34;;;;;;;3.45;2.50;;;;;;;;;;12788996;23;20104;-76
2023/10/16 18:16:38;;;;;;;4.00;2.20;;;;;;;;;;12796004;23;20679;-76
2023/10/16 18:21:47;;;;;;;5.03;2.75;;;;;;;;;;12788875;23;20060;-76
2023/10/16 18:26:50;;;;;;;4.97;2.45;;;;;;;;;;12794509;23;20025;-76
2023/10/16 18:31:53;;;;;;;2.47;1.80;;;;;;;;;;12794699;23;20029;-77
2023/10/16 18:36:59;;;;;;;3.72;2.30;;;;;;;;;;12790713;23;20025;-76
2023/10/16 18:42:03;;;;;;;3.70;2.03;;;;;;;;;;12787115;23;20041;-76
2023/10/16 18:47:06;;;;;;;2.83;2.05;;;;;;;;;;12792784;23;20020;-76
2023/10/16 18:52:11;;;;;;;2.35;1.52;;;;;;;;;;12785735;23;20045;-76
2023/10/16 18:57:15;;;;;;;3.90;1.55;;;;;;;;;;12792038;23;20017;-76
2023/10/16 19:02:19;;;;;;;3.53;2.20;;;;;;;;;;12786696;23;20036;-76
2023/10/16 19:07:24;;;;;;;5.65;2.30;;;;;;;;;;12795384;23;20021;-77
2023/10/16 19:12:31;;;;;;;2.93;1.93;;;;;;;;;;12790806;23;20111;-76
2023/10/16 19:17:34;;;;;;;2.20;1.65;;;;;;;;;;12786542;23;20052;-76
2023/10/16 19:22:43;;;;;;;2.55;1.90;;;;;;;;;;12835992;23;20832;-76
2023/10/16 19:27:47;;;;;;;3.25;1.80;;;;;;;;;;12849244;23;20016;-76
2023/10/16 19:32:50;;;;;;;2.00;1.45;;;;;;;;;;12852129;23;20367;-77
2023/10/16 19:37:55;;;;;;;4.93;2.05;;;;;;;;;;12852434;23;20028;-76
2023/10/16 19:42:58;;;;;;;4.00;2.33;;;;;;;;;;12872635;22;20099;-77
2023/10/16 19:48:04;;;;;;;2.80;2.00;;;;;;;;;;12887716;22;20025;-76
2023/10/16 19:53:09;;;;;;;2.72;2.00;;;;;;;;;;12851701;23;20081;-76
2023/10/16 19:58:14;;;;;;;2.63;1.75;;;;;;;;;;12789864;23;20028;-77
2023/10/16 20:03:18;;;;;;;2.33;1.60;;;;;;;;;;12789340;23;20040;-76
2023/10/16 20:08:23;;;;;;;2.30;1.40;;;;;;;;;;12789965;23;20025;-77
2023/10/16 20:13:26;;;;;;;2.40;1.70;;;;;;;;;;12809666;23;20017;-76
2023/10/16 20:18:30;;;;;;;3.13;2.25;;;;;;;;;;12790886;23;20031;-76
2023/10/16 20:23:36;;;;;;;2.90;2.17;;;;;;;;;;12810149;23;20024;-76
2023/10/16 20:28:40;;;;;;;3.70;1.77;;;;;;;;;;12809551;23;20048;-76
2023/10/16 20:33:45;;;;;;;2.97;1.90;;;;;;;;;;12808358;23;20021;-76
2023/10/16 20:38:50;;;;;;;3.33;2.30;;;;;;;;;;12767786;23;20021;-77
2023/10/16 20:43:55;;;;;;;3.50;2.13;;;;;;;;;;12806104;23;20348;-77
2023/10/16 20:48:59;;;;;;;2.90;1.80;;;;;;;;;;12772059;23;20455;-76
2023/10/16 20:54:06;;;;;;;4.80;2.60;;;;;;;;;;12849915;23;20060;-77
2023/10/16 20:59:10;;;;;;;4.70;2.50;;;;;;;;;;12868079;23;20021;-76
2023/10/16 21:04:15;;;;;;;2.20;1.73;;;;;;;;;;12868455;23;20083;-76
2023/10/16 21:09:20;;;;;;;2.50;1.85;;;;;;;;;;12868178;23;20025;-76
2023/10/16 21:14:23;;;;;;;3.10;1.85;;;;;;;;;;12867682;23;20024;-76
2023/10/16 21:19:27;;;;;;;2.25;1.67;;;;;;;;;;12867467;23;20024;-76
2023/10/16 21:24:34;;;;;;;2.92;2.05;;;;;;;;;;12866258;23;20103;-76
2023/10/16 21:29:37;;;;;;;4.63;2.35;;;;;;;;;;12866831;23;20087;-76
2023/10/16 21:34:41;;;;;;;5.00;2.95;;;;;;;;;;12866376;23;20029;-76
2023/10/16 21:39:47;;;;;;;3.45;2.20;;;;;;;;;;12865197;23;20080;-76
2023/10/16 21:44:51;;;;;;;3.22;2.13;;;;;;;;;;12850499;23;20033;-76
2023/10/16 21:49:55;;;;;;;3.70;2.17;;;;;;;;;;12864722;23;20403;-76
2023/10/16 21:55:00;;;;;;;4.25;2.28;;;;;;;;;;12864914;23;20028;-77
2023/10/16 22:00:12;;;;;;;3.93;2.33;;;;;;;;;;12864295;23;20031;-76
2023/10/16 22:05:18;;;;;;;3.33;2.15;;;;;;;;;;12850931;23;20031;-76
2023/10/16 22:10:23;;;;;;;3.70;2.25;;;;;;;;;;12849022;23;20028;-76
2023/10/16 22:15:26;;;;;;;2.60;1.38;;;;;;;;;;12851109;23;20024;-76
2023/10/16 22:20:30;;;;;;;2.67;1.70;;;;;;;;;;12850753;23;20028;-76
2023/10/16 22:25:36;;;;;;;2.40;1.65;;;;;;;;;;12848271;23;20025;-76
2023/10/16 22:30:39;;;;;;;2.00;1.67;;;;;;;;;;12860449;23;20036;-76
2023/10/16 22:35:43;;;;;;;2.47;1.75;;;;;;;;;;12860058;23;20020;-76
2023/10/16 22:40:57;;;;;;;4.15;2.20;;;;;;;;;;12859756;23;20408;-76
2023/10/16 22:46:01;;;;;;;2.70;1.70;;;;;;;;;;12849761;23;20025;-76
2023/10/16 22:51:05;;;;;;;2.03;1.38;;;;;;;;;;12859535;23;20028;-76
2023/10/16 22:56:10;;;;;;;1.77;1.20;;;;;;;;;;12859466;23;20399;-77
2023/10/16 23:01:14;;;;;;;2.05;1.48;;;;;;;;;;12851084;23;20336;-76
2023/10/16 23:06:18;;;;;;;2.05;1.13;;;;;;;;;;12858338;23;20028;-77
2023/10/16 23:11:25;;;;;;;2.42;1.20;;;;;;;;;;12858005;23;20356;-77
2023/10/16 23:16:28;;;;;;;2.28;1.23;;;;;;;;;;12848910;23;20029;-77
2023/10/16 23:21:32;;;;;;;1.50;1.10;;;;;;;;;;12857272;23;20027;-76
2023/10/16 23:26:37;;;;;;;2.75;1.55;;;;;;;;;;12857289;23;20486;-77
2023/10/16 23:31:47;;;;;;;2.38;1.38;;;;;;;;;;12856800;23;20362;-76
2023/10/16 23:36:56;;;;;;;1.55;1.27;;;;;;;;;;12850542;23;20032;-76
2023/10/16 23:42:16;;;;;;;2.30;1.48;;;;;;;;;;12854852;23;20028;-77
2023/10/16 23:47:21;;;;;;;2.78;1.48;;;;;;;;;;12848486;23;20409;-76
2023/10/16 23:52:36;;;;;;;1.17;0.95;;;;;;;;;;12853647;23;20032;-76
2023/10/16 23:57:48;;;;;;;1.60;1.15;;;;;;;;;;12855876;23;20025;-77
